createdAt,value
2024-04-13T00:00:44.259Z,985.66
2024-04-13T00:01:44.229Z,985.63
2024-04-13T00:02:44.274Z,985.60
2024-04-13T00:03:44.431Z,985.59
2024-04-13T00:04:44.249Z,985.55
2024-04-13T00:05:44.207Z,985.57
2024-04-13T00:06:45.700Z,985.52
2024-04-13T00:07:44.146Z,985.57
2024-04-13T00:08:44.136Z,985.54
2024-04-13T00:09:44.121Z,985.56
2024-04-13T00:10:44.159Z,985.53
2024-04-13T00:11:44.116Z,985.54
2024-04-13T00:12:44.087Z,985.54
2024-04-13T00:13:44.085Z,985.51
2024-04-13T00:14:44.065Z,985.51
2024-04-13T00:15:44.052Z,985.52
2024-04-13T00:16:44.076Z,985.50
2024-04-13T00:17:44.069Z,985.52
2024-04-13T00:18:44.298Z,985.54
2024-04-13T00:19:44.008Z,985.53
2024-04-13T00:20:43.990Z,985.53
2024-04-13T00:21:43.994Z,985.48
2024-04-13T00:22:43.967Z,985.45
2024-04-13T00:23:43.972Z,985.42
2024-04-13T00:24:43.988Z,985.40
2024-04-13T00:25:43.950Z,985.40
2024-04-13T00:26:43.945Z,985.36
2024-04-13T00:27:43.921Z,985.37
2024-04-13T00:28:43.897Z,985.37
2024-04-13T00:29:43.895Z,985.34
2024-04-13T00:30:43.920Z,985.32
2024-04-13T00:31:43.990Z,985.33
2024-04-13T00:32:43.860Z,985.33
2024-04-13T00:33:43.844Z,985.33
2024-04-13T00:34:43.827Z,985.29
2024-04-13T00:35:43.813Z,985.30
2024-04-13T00:36:43.916Z,985.28
2024-04-13T00:37:43.815Z,985.29
2024-04-13T00:38:43.790Z,985.29
2024-04-13T00:39:43.820Z,985.26
2024-04-13T00:40:43.756Z,985.21
2024-04-13T00:41:43.777Z,985.25
2024-04-13T00:42:43.746Z,985.23
2024-04-13T00:43:43.724Z,985.25
2024-04-13T00:44:43.838Z,985.21
2024-04-13T00:45:43.842Z,985.22
2024-04-13T00:46:43.738Z,985.22
2024-04-13T00:47:43.767Z,985.17
2024-04-13T00:48:43.995Z,985.16
2024-04-13T00:49:43.649Z,985.18
2024-04-13T00:50:43.636Z,985.20
2024-04-13T00:51:43.632Z,985.17
2024-04-13T00:52:43.612Z,985.19
2024-04-13T00:53:43.600Z,985.18
2024-04-13T00:54:43.585Z,985.16
2024-04-13T00:55:43.577Z,985.18
2024-04-13T00:56:43.585Z,985.17
2024-04-13T00:57:43.549Z,985.21
2024-04-13T00:58:43.548Z,985.19
2024-04-13T00:59:43.531Z,985.14
2024-04-13T01:00:43.575Z,985.18
2024-04-13T01:01:43.509Z,985.17
2024-04-13T01:02:43.574Z,985.18
2024-04-13T01:03:43.607Z,985.17
2024-04-13T01:04:43.464Z,985.17
2024-04-13T01:05:43.480Z,985.20
2024-04-13T01:06:43.533Z,985.17
2024-04-13T01:07:43.441Z,985.16
2024-04-13T01:08:43.417Z,985.15
2024-04-13T01:09:43.406Z,985.17
2024-04-13T01:10:43.397Z,985.14
2024-04-13T01:11:43.480Z,985.15
2024-04-13T01:12:43.368Z,985.15
2024-04-13T01:13:43.362Z,985.15
2024-04-13T01:14:43.366Z,985.18
2024-04-13T01:15:43.332Z,985.18
2024-04-13T01:16:43.322Z,985.18
2024-04-13T01:17:43.432Z,985.18
2024-04-13T01:18:43.341Z,985.17
2024-04-13T01:19:43.288Z,985.18
2024-04-13T01:20:43.275Z,985.16
2024-04-13T01:21:43.289Z,985.16
2024-04-13T01:22:43.315Z,985.19
2024-04-13T01:23:43.241Z,985.20
2024-04-13T01:24:43.270Z,985.22
2024-04-13T01:25:43.220Z,985.17
2024-04-13T01:26:43.203Z,985.16
2024-04-13T01:27:43.184Z,985.12
2024-04-13T01:28:43.187Z,985.15
2024-04-13T01:29:43.165Z,985.12
2024-04-13T01:30:43.205Z,985.11
2024-04-13T01:31:43.147Z,985.15
2024-04-13T01:32:43.191Z,985.11
2024-04-13T01:33:43.187Z,985.19
2024-04-13T01:34:43.103Z,985.22
2024-04-13T01:35:43.087Z,985.19
2024-04-13T01:36:43.074Z,985.19
2024-04-13T01:37:43.070Z,985.19
2024-04-13T01:38:43.048Z,985.21
2024-04-13T01:39:43.079Z,985.16
2024-04-13T01:40:43.023Z,985.19
2024-04-13T01:41:43.029Z,985.17
2024-04-13T01:42:42.997Z,985.16
2024-04-13T01:43:42.996Z,985.18
2024-04-13T01:44:42.974Z,985.17
2024-04-13T01:45:42.980Z,985.15
2024-04-13T01:46:42.967Z,985.07
2024-04-13T01:47:43.090Z,985.11
2024-04-13T01:48:42.988Z,985.10
2024-04-13T01:49:42.916Z,985.06
2024-04-13T01:50:42.899Z,985.04
2024-04-13T01:51:42.894Z,985.04
2024-04-13T01:52:42.884Z,985.04
2024-04-13T01:53:42.870Z,985.02
2024-04-13T01:54:42.865Z,985.01
2024-04-13T01:55:42.854Z,985.01
2024-04-13T01:56:42.828Z,984.96
2024-04-13T01:57:42.839Z,984.96
2024-04-13T01:58:42.809Z,984.94
2024-04-13T01:59:42.789Z,984.98
2024-04-13T02:00:42.938Z,984.99
2024-04-13T02:01:42.774Z,985.00
2024-04-13T02:02:42.764Z,984.99
2024-04-13T02:03:42.830Z,985.03
2024-04-13T02:04:42.725Z,985.01
2024-04-13T02:05:42.716Z,985.03
2024-04-13T02:06:42.789Z,985.00
2024-04-13T02:07:42.689Z,985.00
2024-04-13T02:08:42.690Z,985.04
2024-04-13T02:09:42.678Z,985.05
2024-04-13T02:10:42.680Z,985.06
2024-04-13T02:11:42.642Z,985.03
2024-04-13T02:12:42.642Z,985.03
2024-04-13T02:13:42.637Z,985.06
2024-04-13T02:14:42.617Z,985.03
2024-04-13T02:15:42.631Z,985.02
2024-04-13T02:16:42.596Z,985.05
2024-04-13T02:17:42.622Z,985.02
2024-04-13T02:18:42.649Z,985.02
2024-04-13T02:19:42.559Z,985.04
2024-04-13T02:20:42.526Z,985.05
2024-04-13T02:21:42.635Z,985.04
2024-04-13T02:22:42.501Z,985.01
2024-04-13T02:23:42.495Z,985.02
2024-04-13T02:24:42.510Z,985.01
2024-04-13T02:25:42.469Z,985.02
2024-04-13T02:26:42.463Z,985.00
2024-04-13T02:27:42.458Z,985.04
2024-04-13T02:28:42.426Z,985.07
2024-04-13T02:29:42.414Z,985.06
2024-04-13T02:30:42.429Z,985.07
2024-04-13T02:31:42.394Z,985.03
2024-04-13T02:32:42.419Z,985.08
2024-04-13T02:33:42.401Z,985.08
2024-04-13T02:34:42.375Z,985.08
2024-04-13T02:35:42.342Z,985.10
2024-04-13T02:36:42.412Z,985.10
2024-04-13T02:37:42.314Z,985.10
2024-04-13T02:38:42.295Z,985.09
2024-04-13T02:39:42.301Z,985.14
2024-04-13T02:40:42.281Z,985.10
2024-04-13T02:41:42.262Z,985.11
2024-04-13T02:42:42.328Z,985.12
2024-04-13T02:43:42.243Z,985.10
2024-04-13T02:44:42.234Z,985.10
2024-04-13T02:45:42.234Z,985.10
2024-04-13T02:46:42.196Z,985.13
2024-04-13T02:47:42.361Z,985.15
2024-04-13T02:48:42.267Z,985.13
2024-04-13T02:49:42.163Z,985.12
2024-04-13T02:50:42.156Z,985.16
2024-04-13T02:51:42.177Z,985.17
2024-04-13T02:52:42.126Z,985.17
2024-04-13T02:53:42.106Z,985.19
2024-04-13T02:54:42.193Z,985.18
2024-04-13T02:55:42.104Z,985.16
2024-04-13T02:56:42.077Z,985.18
2024-04-13T02:57:42.082Z,985.17
2024-04-13T02:58:42.045Z,985.17
2024-04-13T02:59:42.030Z,985.15
2024-04-13T03:00:42.080Z,985.15
2024-04-13T03:01:42.004Z,985.14
2024-04-13T03:02:42.022Z,985.12
2024-04-13T03:03:42.075Z,985.09
2024-04-13T03:04:41.965Z,985.08
2024-04-13T03:05:41.956Z,985.08
2024-04-13T03:06:41.984Z,985.07
2024-04-13T03:07:41.923Z,985.07
2024-04-13T03:08:41.911Z,985.08
2024-04-13T03:09:41.942Z,985.07
2024-04-13T03:10:41.885Z,985.05
2024-04-13T03:11:41.892Z,985.07
2024-04-13T03:12:41.899Z,985.10
2024-04-13T03:13:41.858Z,985.09
2024-04-13T03:14:41.839Z,985.14
2024-04-13T03:15:41.849Z,985.08
2024-04-13T03:16:41.837Z,985.10
2024-04-13T03:17:41.820Z,985.11
2024-04-13T03:18:41.835Z,985.10
2024-04-13T03:19:41.773Z,985.11
2024-04-13T03:20:41.756Z,985.12
2024-04-13T03:21:41.820Z,985.09
2024-04-13T03:22:41.751Z,985.11
2024-04-13T03:23:41.750Z,985.09
2024-04-13T03:24:41.751Z,985.12
2024-04-13T03:25:41.696Z,985.14
2024-04-13T03:26:41.682Z,985.16
2024-04-13T03:27:41.730Z,985.12
2024-04-13T03:28:41.662Z,985.14
2024-04-13T03:29:41.639Z,985.16
2024-04-13T03:30:41.650Z,985.12
2024-04-13T03:31:41.614Z,985.20
2024-04-13T03:32:41.642Z,985.15
2024-04-13T03:33:41.668Z,985.18
2024-04-13T03:34:41.601Z,985.19
2024-04-13T03:35:41.581Z,985.21
2024-04-13T03:36:41.588Z,985.19
2024-04-13T03:37:41.543Z,985.26
2024-04-13T03:38:41.540Z,985.25
2024-04-13T03:39:41.556Z,985.24
2024-04-13T03:40:41.509Z,985.24
2024-04-13T03:41:41.485Z,985.23
2024-04-13T03:42:41.515Z,985.21
2024-04-13T03:43:41.469Z,985.23
2024-04-13T03:44:41.449Z,985.22
2024-04-13T03:45:41.496Z,985.22
2024-04-13T03:46:41.417Z,985.21
2024-04-13T03:47:41.484Z,985.20
2024-04-13T03:48:41.474Z,985.22
2024-04-13T03:49:41.382Z,985.25
2024-04-13T03:50:41.395Z,985.26
2024-04-13T03:51:41.417Z,985.24
2024-04-13T03:52:41.350Z,985.25
2024-04-13T03:53:41.331Z,985.26
2024-04-13T03:54:41.376Z,985.26
2024-04-13T03:55:41.302Z,985.27
2024-04-13T03:56:41.286Z,985.24
2024-04-13T03:57:41.331Z,985.23
2024-04-13T03:58:41.258Z,985.20
2024-04-13T03:59:41.255Z,985.19
2024-04-13T04:00:41.308Z,985.17
2024-04-13T04:01:41.271Z,985.20
2024-04-13T04:02:41.216Z,985.23
2024-04-13T04:03:41.282Z,985.18
2024-04-13T04:04:41.247Z,985.20
2024-04-13T04:05:41.169Z,985.21
2024-04-13T04:06:41.186Z,985.22
2024-04-13T04:07:41.147Z,985.21
2024-04-13T04:08:41.132Z,985.18
2024-04-13T04:09:41.134Z,985.22
2024-04-13T04:10:41.120Z,985.25
2024-04-13T04:11:41.099Z,985.29
2024-04-13T04:12:41.176Z,985.27
2024-04-13T04:13:41.077Z,985.26
2024-04-13T04:14:43.226Z,985.26
2024-04-13T04:15:41.092Z,985.25
2024-04-13T04:16:41.022Z,985.25
2024-04-13T04:17:41.204Z,985.26
2024-04-13T04:18:41.164Z,985.32
2024-04-13T04:19:40.986Z,985.34
2024-04-13T04:20:40.996Z,985.39
2024-04-13T04:21:41.024Z,985.33
2024-04-13T04:22:40.942Z,985.36
2024-04-13T04:23:40.938Z,985.39
2024-04-13T04:24:40.960Z,985.38
2024-04-13T04:25:40.904Z,985.37
2024-04-13T04:26:40.910Z,985.39
2024-04-13T04:27:40.960Z,985.38
2024-04-13T04:28:40.862Z,985.40
2024-04-13T04:29:40.905Z,985.39
2024-04-13T04:30:40.943Z,985.37
2024-04-13T04:31:40.827Z,985.37
2024-04-13T04:32:40.842Z,985.39
2024-04-13T04:33:41.031Z,985.44
2024-04-13T04:34:40.780Z,985.40
2024-04-13T04:35:40.771Z,985.40
2024-04-13T04:36:40.790Z,985.40
2024-04-13T04:37:40.746Z,985.37
2024-04-13T04:38:40.735Z,985.39
2024-04-13T04:39:40.800Z,985.36
2024-04-13T04:40:40.713Z,985.36
2024-04-13T04:41:40.693Z,985.36
2024-04-13T04:42:40.760Z,985.37
2024-04-13T04:43:40.674Z,985.34
2024-04-13T04:44:40.650Z,985.32
2024-04-13T04:45:40.742Z,985.29
2024-04-13T04:46:42.273Z,985.30
2024-04-13T04:47:40.693Z,985.27
2024-04-13T04:48:40.903Z,985.31
2024-04-13T04:49:40.586Z,985.28
2024-04-13T04:50:40.570Z,985.29
2024-04-13T04:51:40.643Z,985.31
2024-04-13T04:52:43.418Z,985.29
2024-04-13T04:53:40.532Z,985.28
2024-04-13T04:54:40.569Z,985.25
2024-04-13T04:55:40.507Z,985.24
2024-04-13T04:56:40.543Z,985.23
2024-04-13T04:57:40.485Z,985.26
2024-04-13T04:58:40.503Z,985.26
2024-04-13T04:59:40.450Z,985.23
2024-04-13T05:00:40.641Z,985.23
2024-04-13T05:01:40.424Z,985.27
2024-04-13T05:02:40.475Z,985.29
2024-04-13T05:03:40.508Z,985.32
2024-04-13T05:04:40.392Z,985.34
2024-04-13T05:05:40.406Z,985.38
2024-04-13T05:06:40.399Z,985.38
2024-04-13T05:07:40.384Z,985.42
2024-04-13T05:08:40.339Z,985.45
2024-04-13T05:09:40.403Z,985.47
2024-04-13T05:10:40.321Z,985.44
2024-04-13T05:11:40.294Z,985.45
2024-04-13T05:12:40.326Z,985.45
2024-04-13T05:13:40.263Z,985.45
2024-04-13T05:14:40.268Z,985.49
2024-04-13T05:15:40.374Z,985.49
2024-04-13T05:16:40.232Z,985.51
2024-04-13T05:17:40.284Z,985.52
2024-04-13T05:18:40.456Z,985.50
2024-04-13T05:19:40.413Z,985.59
2024-04-13T05:20:40.202Z,985.60
2024-04-13T05:21:40.244Z,985.61
2024-04-13T05:22:40.351Z,985.64
2024-04-13T05:23:40.133Z,985.67
2024-04-13T05:24:40.268Z,985.71
2024-04-13T05:25:40.105Z,985.71
2024-04-13T05:26:40.097Z,985.69
2024-04-13T05:27:40.210Z,985.72
2024-04-13T05:28:40.072Z,985.70
2024-04-13T05:29:40.057Z,985.71
2024-04-13T05:30:40.231Z,985.72
2024-04-13T05:31:40.028Z,985.69
2024-04-13T05:32:40.085Z,985.72
2024-04-13T05:33:40.310Z,985.74
2024-04-13T05:34:40.000Z,985.71
2024-04-13T05:35:39.978Z,985.76
2024-04-13T05:36:40.095Z,985.77
2024-04-13T05:37:39.951Z,985.77
2024-04-13T05:38:39.946Z,985.79
2024-04-13T05:39:40.047Z,985.83
2024-04-13T05:40:39.916Z,985.81
2024-04-13T05:41:39.914Z,985.86
2024-04-13T05:42:39.963Z,985.90
2024-04-13T05:43:39.873Z,985.90
2024-04-13T05:44:39.874Z,985.84
2024-04-13T05:45:40.063Z,985.89
2024-04-13T05:46:39.863Z,985.88
2024-04-13T05:47:39.836Z,985.91
2024-04-13T05:48:39.846Z,985.89
2024-04-13T05:49:39.836Z,985.96
2024-04-13T05:50:39.797Z,985.92
2024-04-13T05:51:39.799Z,985.90
2024-04-13T05:52:39.768Z,985.88
2024-04-13T05:53:39.765Z,985.90
2024-04-13T05:54:39.871Z,985.89
2024-04-13T05:55:39.743Z,985.89
2024-04-13T05:56:39.722Z,985.89
2024-04-13T05:57:39.755Z,985.89
2024-04-13T05:58:39.692Z,985.84
2024-04-13T05:59:39.682Z,985.83
2024-04-13T06:00:39.785Z,985.85
2024-04-13T06:01:39.683Z,985.80
2024-04-13T06:02:39.729Z,985.80
2024-04-13T06:03:39.648Z,985.79
2024-04-13T06:04:39.681Z,985.84
2024-04-13T06:05:42.398Z,985.78
2024-04-13T06:06:39.656Z,985.82
2024-04-13T06:07:39.585Z,985.80
2024-04-13T06:08:39.584Z,985.79
2024-04-13T06:09:39.620Z,985.77
2024-04-13T06:10:39.550Z,985.77
2024-04-13T06:11:39.535Z,985.83
2024-04-13T06:12:39.609Z,985.82
2024-04-13T06:13:39.522Z,985.77
2024-04-13T06:14:39.515Z,985.81
2024-04-13T06:15:39.557Z,985.79
2024-04-13T06:16:39.515Z,985.80
2024-04-13T06:17:39.527Z,985.85
2024-04-13T06:18:39.515Z,985.84
2024-04-13T06:19:39.466Z,985.86
2024-04-13T06:20:39.436Z,985.82
2024-04-13T06:21:39.475Z,985.85
2024-04-13T06:22:39.415Z,985.81
2024-04-13T06:23:39.555Z,985.86
2024-04-13T06:24:39.460Z,985.82
2024-04-13T06:25:39.393Z,985.83
2024-04-13T06:26:39.377Z,985.90
2024-04-13T06:27:39.491Z,985.79
2024-04-13T06:28:39.367Z,985.79
2024-04-13T06:29:39.333Z,985.80
2024-04-13T06:30:39.374Z,985.78
2024-04-13T06:31:39.314Z,985.78
2024-04-13T06:32:39.365Z,985.79
2024-04-13T06:33:39.410Z,985.80
2024-04-13T06:34:39.297Z,985.79
2024-04-13T06:35:39.276Z,985.79
2024-04-13T06:36:41.681Z,985.72
2024-04-13T06:37:39.250Z,985.74
2024-04-13T06:38:39.237Z,985.71
2024-04-13T06:39:39.245Z,985.74
2024-04-13T06:40:39.214Z,985.68
2024-04-13T06:41:39.250Z,985.68
2024-04-13T06:42:39.240Z,985.66
2024-04-13T06:43:39.194Z,985.65
2024-04-13T06:44:39.172Z,985.64
2024-04-13T06:45:39.229Z,985.67
2024-04-13T06:46:39.202Z,985.62
2024-04-13T06:47:39.160Z,985.62
2024-04-13T06:48:39.165Z,985.64
2024-04-13T06:49:39.115Z,985.61
2024-04-13T06:50:39.119Z,985.63
2024-04-13T06:51:39.107Z,985.66
2024-04-13T06:52:39.092Z,985.68
2024-04-13T06:53:39.072Z,985.72
2024-04-13T06:54:40.848Z,985.73
2024-04-13T06:55:39.053Z,985.72
2024-04-13T06:56:39.049Z,985.73
2024-04-13T06:57:39.066Z,985.74
2024-04-13T06:58:39.022Z,985.77
2024-04-13T06:59:39.010Z,985.75
2024-04-13T07:00:39.046Z,985.74
2024-04-13T07:01:39.051Z,985.75
2024-04-13T07:02:39.017Z,985.76
2024-04-13T07:03:39.058Z,985.73
2024-04-13T07:04:39.020Z,985.77
2024-04-13T07:05:38.959Z,985.78
2024-04-13T07:06:38.963Z,985.78
2024-04-13T07:07:38.931Z,985.81
2024-04-13T07:08:44.122Z,985.79
2024-04-13T07:09:38.950Z,985.80
2024-04-13T07:10:38.936Z,985.74
2024-04-13T07:11:38.901Z,985.77
2024-04-13T07:12:38.918Z,985.74
2024-04-13T07:13:38.871Z,985.79
2024-04-13T07:14:38.863Z,985.79
2024-04-13T07:15:38.868Z,985.73
2024-04-13T07:16:38.889Z,985.74
2024-04-13T07:17:38.854Z,985.71
2024-04-13T07:18:38.888Z,985.69
2024-04-13T07:19:38.810Z,985.65
2024-04-13T07:20:38.807Z,985.64
2024-04-13T07:21:38.815Z,985.61
2024-04-13T07:22:38.806Z,985.60
2024-04-13T07:23:38.788Z,985.62
2024-04-13T07:24:38.822Z,985.60
2024-04-13T07:25:38.760Z,985.55
2024-04-13T07:26:38.754Z,985.58
2024-04-13T07:27:38.796Z,985.59
2024-04-13T07:28:38.937Z,985.57
2024-04-13T07:29:38.719Z,985.52
2024-04-13T07:30:38.762Z,985.55
2024-04-13T07:31:38.699Z,985.51
2024-04-13T07:32:38.853Z,985.54
2024-04-13T07:33:38.858Z,985.50
2024-04-13T07:34:38.677Z,985.47
2024-04-13T07:35:38.666Z,985.48
2024-04-13T07:36:38.672Z,985.49
2024-04-13T07:37:38.640Z,985.49
2024-04-13T07:38:38.770Z,985.46
2024-04-13T07:39:38.652Z,985.42
2024-04-13T07:40:38.771Z,985.44
2024-04-13T07:41:38.607Z,985.44
2024-04-13T07:42:38.627Z,985.44
2024-04-13T07:43:38.639Z,985.40
2024-04-13T07:44:41.274Z,985.41
2024-04-13T07:45:38.612Z,985.39
2024-04-13T07:46:38.568Z,985.40
2024-04-13T07:47:38.577Z,985.41
2024-04-13T07:48:38.626Z,985.40
2024-04-13T07:49:38.539Z,985.41
2024-04-13T07:50:38.533Z,985.42
2024-04-13T07:51:38.557Z,985.43
2024-04-13T07:52:38.527Z,985.43
2024-04-13T07:53:38.501Z,985.43
2024-04-13T07:54:38.526Z,985.43
2024-04-13T07:55:38.484Z,985.43
2024-04-13T07:56:38.485Z,985.43
2024-04-13T07:57:38.484Z,985.44
2024-04-13T07:58:38.463Z,985.43
2024-04-13T07:59:38.453Z,985.41
2024-04-13T08:00:38.511Z,985.38
2024-04-13T08:01:38.499Z,985.38
2024-04-13T08:02:38.440Z,985.32
2024-04-13T08:03:38.636Z,985.32
2024-04-13T08:04:40.881Z,985.32
2024-04-13T08:05:38.414Z,985.37
2024-04-13T08:06:38.484Z,985.35
2024-04-13T08:07:38.385Z,985.30
2024-04-13T08:08:38.391Z,985.30
2024-04-13T08:09:38.422Z,985.34
2024-04-13T08:10:38.381Z,985.31
2024-04-13T08:11:38.353Z,985.32
2024-04-13T08:12:38.391Z,985.32
2024-04-13T08:13:38.335Z,985.32
2024-04-13T08:14:38.334Z,985.32
2024-04-13T08:15:38.337Z,985.33
2024-04-13T08:16:38.367Z,985.32
2024-04-13T08:17:38.324Z,985.29
2024-04-13T08:18:38.329Z,985.27
2024-04-13T08:19:38.289Z,985.23
2024-04-13T08:20:38.286Z,985.25
2024-04-13T08:21:38.348Z,985.24
2024-04-13T08:22:38.269Z,985.24
2024-04-13T08:23:38.288Z,985.20
2024-04-13T08:24:38.335Z,985.24
2024-04-13T08:25:38.253Z,985.26
2024-04-13T08:26:38.276Z,985.24
2024-04-13T08:27:38.268Z,985.24
2024-04-13T08:28:38.256Z,985.21
2024-04-13T08:29:38.221Z,985.23
2024-04-13T08:30:38.301Z,985.23
2024-04-13T08:31:38.267Z,985.20
2024-04-13T08:32:38.203Z,985.20
2024-04-13T08:33:38.293Z,985.20
2024-04-13T08:34:38.185Z,985.23
2024-04-13T08:35:38.177Z,985.23
2024-04-13T08:36:38.202Z,985.21
2024-04-13T08:37:38.154Z,985.21
2024-04-13T08:38:38.230Z,985.19
2024-04-13T08:39:38.157Z,985.21
2024-04-13T08:40:38.339Z,985.25
2024-04-13T08:41:38.138Z,985.22
2024-04-13T08:42:38.163Z,985.20
2024-04-13T08:43:38.162Z,985.18
2024-04-13T08:44:38.113Z,985.19
2024-04-13T08:45:38.142Z,985.14
2024-04-13T08:46:38.092Z,985.16
2024-04-13T08:47:38.179Z,985.16
2024-04-13T08:48:38.187Z,985.18
2024-04-13T08:49:38.114Z,985.16
2024-04-13T08:50:38.064Z,985.18
2024-04-13T08:51:38.075Z,985.12
2024-04-13T08:52:38.051Z,985.08
2024-04-13T08:53:38.041Z,985.07
2024-04-13T08:54:38.058Z,985.10
2024-04-13T08:55:38.027Z,985.05
2024-04-13T08:56:38.035Z,985.06
2024-04-13T08:57:38.093Z,985.10
2024-04-13T08:58:38.199Z,985.09
2024-04-13T08:59:37.999Z,985.10
2024-04-13T09:00:38.045Z,985.11
2024-04-13T09:01:38.051Z,985.09
2024-04-13T09:02:37.979Z,985.07
2024-04-13T09:03:38.086Z,985.09
2024-04-13T09:04:37.977Z,985.04
2024-04-13T09:05:37.968Z,985.06
2024-04-13T09:06:38.006Z,985.03
2024-04-13T09:07:37.945Z,985.01
2024-04-13T09:08:37.942Z,985.00
2024-04-13T09:09:37.940Z,984.96
2024-04-13T09:10:37.927Z,984.95
2024-04-13T09:11:37.947Z,984.95
2024-04-13T09:12:37.939Z,984.94
2024-04-13T09:13:41.700Z,984.95
2024-04-13T09:14:37.919Z,984.95
2024-04-13T09:15:37.947Z,984.96
2024-04-13T09:16:37.892Z,984.97
2024-04-13T09:17:38.014Z,984.94
2024-04-13T09:18:38.070Z,984.98
2024-04-13T09:19:37.867Z,984.89
2024-04-13T09:20:37.860Z,984.91
2024-04-13T09:21:37.938Z,984.94
2024-04-13T09:22:37.843Z,984.92
2024-04-13T09:23:37.839Z,984.87
2024-04-13T09:24:37.852Z,984.86
2024-04-13T09:25:37.831Z,984.87
2024-04-13T09:26:37.827Z,984.86
2024-04-13T09:27:37.876Z,984.86
2024-04-13T09:28:37.810Z,984.83
2024-04-13T09:29:37.817Z,984.80
2024-04-13T09:30:37.888Z,984.79
2024-04-13T09:31:37.791Z,984.78
2024-04-13T09:32:37.981Z,984.84
2024-04-13T09:33:37.838Z,984.80
2024-04-13T09:34:37.767Z,984.77
2024-04-13T09:35:37.780Z,984.80
2024-04-13T09:36:40.104Z,984.76
2024-04-13T09:37:37.752Z,984.78
2024-04-13T09:38:37.759Z,984.76
2024-04-13T09:39:37.774Z,984.72
2024-04-13T09:40:37.732Z,984.74
2024-04-13T09:41:37.728Z,984.74
2024-04-13T09:42:37.763Z,984.71
2024-04-13T09:43:37.726Z,984.70
2024-04-13T09:44:37.712Z,984.65
2024-04-13T09:45:37.747Z,984.64
2024-04-13T09:46:37.723Z,984.65
2024-04-13T09:47:37.782Z,984.63
2024-04-13T09:48:37.863Z,984.61
2024-04-13T09:49:37.714Z,984.62
2024-04-13T09:50:37.690Z,984.65
2024-04-13T09:51:37.685Z,984.64
2024-04-13T09:52:37.665Z,984.63
2024-04-13T09:53:37.665Z,984.59
2024-04-13T09:54:37.734Z,984.59
2024-04-13T09:55:37.649Z,984.60
2024-04-13T09:56:37.643Z,984.57
2024-04-13T09:57:37.713Z,984.59
2024-04-13T09:58:37.640Z,984.56
2024-04-13T09:59:37.635Z,984.55
2024-04-13T10:00:37.933Z,984.51
2024-04-13T10:01:37.827Z,984.48
2024-04-13T10:02:37.832Z,984.49
2024-04-13T10:03:37.729Z,984.46
2024-04-13T10:04:37.635Z,984.43
2024-04-13T10:05:37.600Z,984.41
2024-04-13T10:06:37.650Z,984.41
2024-04-13T10:07:37.605Z,984.40
2024-04-13T10:08:37.582Z,984.38
2024-04-13T10:09:37.604Z,984.39
2024-04-13T10:10:37.574Z,984.38
2024-04-13T10:11:37.631Z,984.33
2024-04-13T10:12:37.828Z,984.34
2024-04-13T10:13:37.583Z,984.34
2024-04-13T10:14:37.553Z,984.34
2024-04-13T10:15:37.642Z,984.35
2024-04-13T10:16:37.576Z,984.38
2024-04-13T10:17:37.617Z,984.34
2024-04-13T10:18:37.691Z,984.31
2024-04-13T10:19:37.590Z,984.29
2024-04-13T10:20:37.580Z,984.28
2024-04-13T10:21:37.668Z,984.28
2024-04-13T10:22:38.709Z,984.25
2024-04-13T10:23:37.537Z,984.25
2024-04-13T10:24:37.540Z,984.23
2024-04-13T10:25:37.532Z,984.19
2024-04-13T10:26:37.517Z,984.16
2024-04-13T10:27:37.673Z,984.12
2024-04-13T10:28:37.521Z,984.14
2024-04-13T10:29:37.519Z,984.15
2024-04-13T10:30:37.550Z,984.15
2024-04-13T10:31:37.521Z,984.11
2024-04-13T10:32:37.525Z,984.14
2024-04-13T10:33:37.544Z,984.08
2024-04-13T10:34:37.504Z,984.08
2024-04-13T10:35:37.492Z,984.08
2024-04-13T10:36:37.686Z,984.07
2024-04-13T10:37:37.490Z,984.02
2024-04-13T10:38:37.502Z,984.07
2024-04-13T10:39:37.486Z,984.04
2024-04-13T10:40:37.470Z,984.01
2024-04-13T10:41:37.450Z,984.02
2024-04-13T10:42:37.490Z,984.02
2024-04-13T10:43:37.449Z,983.97
2024-04-13T10:45:37.509Z,983.98
2024-04-13T10:46:37.444Z,983.92
2024-04-13T10:47:37.491Z,983.97
2024-04-13T10:48:37.493Z,983.95
2024-04-13T10:49:39.912Z,983.89
2024-04-13T10:50:37.536Z,983.92
2024-04-13T10:51:37.452Z,983.90
2024-04-13T10:52:37.436Z,983.86
2024-04-13T10:53:37.430Z,983.87
2024-04-13T10:54:37.498Z,983.85
2024-04-13T10:55:37.427Z,983.88
2024-04-13T10:56:37.424Z,983.82
2024-04-13T10:57:37.461Z,983.81
2024-04-13T10:58:37.416Z,983.78
2024-04-13T10:59:37.407Z,983.77
2024-04-13T11:00:37.441Z,983.73
2024-04-13T11:02:37.411Z,983.66
2024-04-13T11:03:37.462Z,983.66
2024-04-13T11:04:37.405Z,983.65
2024-04-13T11:05:37.387Z,983.65
2024-04-13T11:06:37.413Z,983.67
2024-04-13T11:07:37.401Z,983.64
2024-04-13T11:08:37.367Z,983.68
2024-04-13T11:09:37.435Z,983.65
2024-04-13T11:10:37.361Z,983.63
2024-04-13T11:11:37.386Z,983.61
2024-04-13T11:12:37.385Z,983.60
2024-04-13T11:13:37.355Z,983.59
2024-04-13T11:14:37.359Z,983.60
2024-04-13T11:15:37.427Z,983.57
2024-04-13T11:16:37.375Z,983.52
2024-04-13T11:17:37.438Z,983.53
2024-04-13T11:18:37.604Z,983.51
2024-04-13T11:19:37.372Z,983.50
2024-04-13T11:20:37.333Z,983.55
2024-04-13T11:21:37.407Z,983.53
2024-04-13T11:22:37.337Z,983.54
2024-04-13T11:23:37.322Z,983.50
2024-04-13T11:24:37.387Z,983.50
2024-04-13T11:25:37.321Z,983.47
2024-04-13T11:26:37.318Z,983.48
2024-04-13T11:27:37.387Z,983.44
2024-04-13T11:28:37.342Z,983.40
2024-04-13T11:29:37.300Z,983.39
2024-04-13T11:30:37.322Z,983.42
2024-04-13T11:31:37.333Z,983.36
2024-04-13T11:32:37.332Z,983.35
2024-04-13T11:33:37.329Z,983.34
2024-04-13T11:34:37.298Z,983.32
2024-04-13T11:35:37.307Z,983.33
2024-04-13T11:36:37.348Z,983.29
2024-04-13T11:37:37.283Z,983.31
2024-04-13T11:38:37.292Z,983.30
2024-04-13T11:39:37.328Z,983.31
2024-04-13T11:40:37.287Z,983.34
2024-04-13T11:41:37.277Z,983.33
2024-04-13T11:42:45.583Z,983.28
2024-04-13T11:43:37.293Z,983.34
2024-04-13T11:44:37.277Z,983.26
2024-04-13T11:45:40.077Z,983.33
2024-04-13T11:46:37.258Z,983.31
2024-04-13T11:47:37.464Z,983.27
2024-04-13T11:48:37.350Z,983.24
2024-04-13T11:49:40.659Z,983.24
2024-04-13T11:50:37.267Z,983.18
2024-04-13T11:51:37.372Z,983.15
2024-04-13T11:52:37.252Z,983.16
2024-04-13T11:53:37.259Z,983.17
2024-04-13T11:54:37.311Z,983.12
2024-04-13T11:55:39.258Z,983.08
2024-04-13T11:56:37.246Z,983.09
2024-04-13T11:57:37.295Z,983.07
2024-04-13T11:58:37.246Z,983.02
2024-04-13T11:59:37.235Z,983.06
2024-04-13T12:00:37.314Z,983.04
2024-04-13T12:01:37.263Z,983.03
2024-04-13T12:02:37.332Z,983.01
2024-04-13T12:03:37.279Z,983.03
2024-04-13T12:04:37.270Z,983.04
2024-04-13T12:05:37.227Z,983.04
2024-04-13T12:06:37.248Z,983.04
2024-04-13T12:07:37.223Z,982.99
2024-04-13T12:08:37.225Z,983.01
2024-04-13T12:09:37.473Z,983.01
2024-04-13T12:10:37.222Z,982.98
2024-04-13T12:11:37.273Z,982.98
2024-04-13T12:12:37.254Z,982.95
2024-04-13T12:13:37.216Z,982.97
2024-04-13T12:14:46.745Z,982.95
2024-04-13T12:15:37.248Z,982.93
2024-04-13T12:16:37.216Z,982.94
2024-04-13T12:17:37.328Z,982.92
2024-04-13T12:18:37.431Z,982.91
2024-04-13T12:19:37.204Z,982.87
2024-04-13T12:20:37.201Z,982.88
2024-04-13T12:21:37.217Z,982.87
2024-04-13T12:22:37.209Z,982.79
2024-04-13T12:23:37.211Z,982.83
2024-04-13T12:24:37.315Z,982.77
2024-04-13T12:25:37.232Z,982.76
2024-04-13T12:26:37.206Z,982.76
2024-04-13T12:27:37.280Z,982.71
2024-04-13T12:29:37.245Z,982.70
2024-04-13T12:30:37.231Z,982.69
2024-04-13T12:31:37.184Z,982.72